createdAt,value
2022-11-30T00:03:03.696Z,7.1
2022-11-30T00:13:04.111Z,7
2022-11-30T00:23:05.001Z,7
2022-11-30T00:33:05.975Z,7
2022-11-30T00:43:07.053Z,6.8
2022-11-30T00:53:07.499Z,6.6
2022-11-30T01:03:08.434Z,6.4
2022-11-30T01:23:09.166Z,6.3
2022-11-30T01:33:10.161Z,6.3
2022-11-30T01:43:10.490Z,6.3
2022-11-30T01:53:10.665Z,6.3
2022-11-30T02:03:11.047Z,6.2
2022-11-30T02:13:12.058Z,6.2
2022-11-30T02:33:13.793Z,6.2
2022-11-30T02:43:14.369Z,6.2
2022-11-30T02:53:14.688Z,6.2
2022-11-30T03:13:15.877Z,6.2
2022-11-30T03:23:16.497Z,6.1
2022-11-30T03:33:17.093Z,6.2
2022-11-30T03:43:18.074Z,6.1
2022-11-30T04:13:19.190Z,6.2
2022-11-30T04:53:21.939Z,6.1
2022-11-30T05:03:22.082Z,6.1
2022-11-30T05:23:23.402Z,6.1
2022-11-30T05:43:24.311Z,6.1
2022-11-30T06:33:27.324Z,6.2
2022-11-30T06:43:28.385Z,6.3
2022-11-30T06:53:29.156Z,6.2
2022-11-30T07:03:30.038Z,6.3
2022-11-30T07:13:30.616Z,6.3
2022-11-30T07:23:31.109Z,6.3
2022-11-30T07:33:32.000Z,6.4
2022-11-30T07:43:32.840Z,6.4
2022-11-30T08:03:36.749Z,6.4
2022-11-30T08:23:35.966Z,6.5
2022-11-30T08:33:36.749Z,6.5
2022-11-30T08:43:37.790Z,6.5
2022-11-30T08:53:38.491Z,6.5
2022-11-30T09:03:39.465Z,6.5
2022-11-30T09:13:39.581Z,6.5
2022-11-30T09:33:40.241Z,6.5
2022-11-30T09:43:40.381Z,6.5
2022-11-30T09:53:40.683Z,6.5
2022-11-30T10:13:41.787Z,6.4
2022-11-30T10:23:42.483Z,6.4
2022-11-30T10:33:43.309Z,6.4
2022-11-30T10:53:44.118Z,6.4
2022-11-30T11:03:45.079Z,6.4
2022-11-30T11:13:45.570Z,6.4
2022-11-30T11:23:45.940Z,6.4
2022-11-30T11:33:47.040Z,6.5
2022-11-30T11:43:47.202Z,6.4
2022-11-30T11:53:52.892Z,6.3
2022-11-30T12:03:48.986Z,6.4
2022-11-30T12:13:49.606Z,6.4
2022-11-30T12:23:50.213Z,6.3
2022-11-30T12:33:50.621Z,6.2
2022-11-30T12:43:51.501Z,6.2
2022-11-30T13:03:52.037Z,6.2
2022-11-30T13:13:52.824Z,6.1
2022-11-30T13:33:53.680Z,6.1
2022-11-30T13:43:53.931Z,6.1
2022-11-30T13:54:07.020Z,6.1
2022-11-30T14:03:55.641Z,6.1
2022-11-30T14:13:56.582Z,6.2
2022-11-30T14:23:56.939Z,6.2
2022-11-30T14:43:58.180Z,6.2
2022-11-30T14:53:58.421Z,6.1
2022-11-30T15:03:59.138Z,6.1
2022-11-30T15:13:59.687Z,6
2022-11-30T15:34:00.703Z,6
2022-11-30T15:44:00.994Z,5.9
2022-11-30T16:04:01.601Z,5.8
2022-11-30T16:14:02.413Z,5.8
2022-11-30T16:24:02.560Z,5.8
2022-11-30T16:34:02.679Z,5.7
2022-11-30T16:44:03.271Z,5.7
2022-11-30T16:54:04.074Z,5.6
2022-11-30T17:04:04.304Z,5.6
2022-11-30T17:14:04.443Z,5.6
2022-11-30T17:34:06.150Z,5.6
2022-11-30T17:44:06.281Z,5.5
2022-11-30T17:54:07.088Z,5.5
2022-11-30T18:04:07.801Z,5.5
2022-11-30T18:14:08.194Z,5.5
2022-11-30T18:24:08.659Z,5.5
2022-11-30T18:34:09.636Z,5.6
2022-11-30T18:44:10.611Z,5.6
2022-11-30T18:54:11.113Z,5.6
2022-11-30T19:04:11.659Z,5.6
2022-11-30T19:44:14.302Z,5.5
2022-11-30T20:04:15.213Z,5.5
2022-11-30T20:14:16.014Z,5.5
2022-11-30T20:24:16.952Z,5.5
2022-11-30T20:34:17.706Z,5.5
2022-11-30T20:44:18.544Z,5.5
2022-11-30T20:54:19.053Z,5.4
2022-11-30T21:14:20.131Z,5.4
2022-11-30T21:34:22.137Z,5.4
2022-11-30T21:44:23.161Z,5.3
2022-11-30T22:04:23.851Z,5.3
2022-11-30T22:14:24.871Z,5.3
2022-11-30T22:34:26.651Z,5.3
2022-11-30T22:44:27.473Z,5.3
2022-11-30T22:54:27.856Z,5.3
2022-11-30T23:24:29.479Z,5.3
2022-11-30T23:34:29.670Z,5.3
2022-11-30T23:44:30.170Z,5.3
2022-11-30T23:54:30.306Z,5.4
